Time;durP1;ratioP1;P1;durP2;ratioP2;P2;SDS_P1;SDS_P2;PMS_P1;PMS_P2;Temp;Humidity;BMP_temperature;BMP_pressure;BME280_temperature;BME280_humidity;BME280_pressure;Samples;Min_cycle;Max_cycle;Signal;HPM_P1;HPM_P2
2022/01/13 00:00:39;;;;;;;35.67;21.20;;;5.20;99.90;;;;;;5065636;28;20419;-40
2022/01/13 00:03:04;;;;;;;35.87;20.73;;;4.90;99.90;;;;;;5061925;28;20181;-39
2022/01/13 00:05:31;;;;;;;39.10;22.53;;;5.10;99.90;;;;;;5060605;28;20196;-41
2022/01/13 00:07:58;;;;;;;38.40;21.37;;;5.10;99.90;;;;;;5068063;28;20243;-39
2022/01/13 00:10:25;;;;;;;34.50;20.90;;;5.10;99.90;;;;;;5067407;28;20817;-39
2022/01/13 00:13:07;;;;;;;43.83;23.80;;;4.90;99.90;;;;;;5068207;28;20466;-39
2022/01/13 00:15:47;;;;;;;35.57;20.33;;;4.90;99.90;;;;;;5088235;28;20845;-41
2022/01/13 00:18:16;;;;;;;34.13;20.53;;;5.00;99.90;;;;;;5059361;28;20431;-40
2022/01/13 00:26:06;;;;;;;39.20;22.10;;;5.00;99.90;;;;;;5067712;28;20484;-40
2022/01/13 00:28:32;;;;;;;38.80;22.43;;;4.90;99.90;;;;;;5067933;28;20481;-40
2022/01/13 00:30:59;;;;;;;33.77;21.70;;;4.90;99.90;;;;;;5065342;28;20455;-40
2022/01/13 00:33:26;;;;;;;35.27;20.87;;;4.90;99.90;;;;;;5056805;28;20193;-40
2022/01/13 00:35:54;;;;;;;39.47;22.57;;;5.10;99.90;;;;;;5067725;28;20471;-39
2022/01/13 00:38:20;;;;;;;36.43;20.43;;;5.00;99.90;;;;;;5067832;28;20435;-40
2022/01/13 00:40:46;;;;;;;32.40;19.20;;;5.20;99.90;;;;;;5066773;28;20514;-39
2022/01/13 00:43:12;;;;;;;35.37;21.70;;;5.20;99.90;;;;;;5066507;28;20189;-41
2022/01/13 00:45:37;;;;;;;37.60;22.67;;;5.00;99.90;;;;;;5067453;28;20249;-40
2022/01/13 00:48:03;;;;;;;36.87;22.10;;;5.30;99.90;;;;;;5057204;28;20206;-40
2022/01/13 00:50:29;;;;;;;34.50;20.90;;;5.30;99.90;;;;;;5066639;28;20227;-40
2022/01/13 00:52:55;;;;;;;36.80;22.17;;;5.20;99.90;;;;;;5066585;28;20500;-41
2022/01/13 00:55:22;;;;;;;44.97;22.40;;;5.10;99.90;;;;;;5067421;28;20719;-40
2022/01/13 00:57:48;;;;;;;39.97;24.13;;;4.90;99.90;;;;;;5067539;28;20196;-40
2022/01/13 01:00:15;;;;;;;37.10;21.57;;;4.70;99.90;;;;;;5066599;28;20427;-39
2022/01/13 01:02:41;;;;;;;40.97;22.87;;;4.60;99.90;;;;;;5059452;28;20439;-39
2022/01/13 01:05:07;;;;;;;40.40;21.27;;;4.60;99.90;;;;;;5067050;28;20791;-39
2022/01/13 01:07:35;;;;;;;38.20;21.73;;;4.40;99.90;;;;;;5067423;28;20196;-40
2022/01/13 01:10:02;;;;;;;36.97;22.63;;;4.50;99.90;;;;;;5066504;28;20431;-40
2022/01/13 01:12:30;;;;;;;42.47;21.80;;;4.60;99.90;;;;;;5067524;28;20526;-39
2022/01/13 01:14:57;;;;;;;41.43;23.30;;;4.60;99.90;;;;;;5082779;28;20488;-40
2022/01/13 01:17:23;;;;;;;42.13;22.37;;;4.60;99.90;;;;;;5065057;28;20471;-39
2022/01/13 01:19:51;;;;;;;38.53;23.10;;;4.40;99.90;;;;;;5066586;28;20435;-39
2022/01/13 01:27:30;;;;;;;39.63;21.33;;;4.60;99.90;;;;;;5066837;28;20439;-40
2022/01/13 01:30:03;;;;;;;45.30;23.40;;;4.20;99.90;;;;;;5066471;28;20506;-42
2022/01/13 01:32:30;;;;;;;44.77;24.40;;;4.40;99.90;;;;;;5057294;28;20446;-40
2022/01/13 01:35:01;;;;;;;47.73;23.07;;;4.40;99.90;;;;;;5067010;28;20488;-40
2022/01/13 01:37:29;;;;;;;45.90;22.90;;;4.30;99.90;;;;;;5069218;28;20423;-40
2022/01/13 01:39:57;;;;;;;46.10;22.40;;;4.40;99.90;;;;;;5070472;28;20514;-40
2022/01/13 01:42:24;;;;;;;44.23;24.20;;;4.40;99.90;;;;;;5070753;28;20430;-39
2022/01/13 01:44:54;;;;;;;42.80;22.20;;;4.50;99.90;;;;;;5071459;28;20423;-40
2022/01/13 01:47:23;;;;;;;43.20;22.70;;;4.50;99.90;;;;;;5062669;28;20482;-41
2022/01/13 01:49:55;;;;;;;41.43;22.43;;;4.60;99.90;;;;;;5063222;28;20872;-39
2022/01/13 01:52:20;;;;;;;41.97;22.20;;;4.70;99.90;;;;;;5069428;28;20454;-39
2022/01/13 01:54:47;;;;;;;40.60;21.50;;;4.50;99.90;;;;;;5070459;28;20509;-40
2022/01/13 01:57:14;;;;;;;39.83;21.87;;;4.50;99.90;;;;;;5070942;28;20307;-39
2022/01/13 01:59:42;;;;;;;43.63;21.70;;;4.60;99.90;;;;;;5070329;28;20441;-40
2022/01/13 02:02:11;;;;;;;39.07;21.07;;;4.70;99.90;;;;;;5063654;28;20436;-40
2022/01/13 02:04:37;;;;;;;41.57;22.17;;;4.60;99.90;;;;;;5062332;28;20423;-39
2022/01/13 02:07:05;;;;;;;38.80;21.00;;;4.80;99.90;;;;;;5069094;28;20481;-40
2022/01/13 02:09:34;;;;;;;39.53;20.40;;;4.60;99.90;;;;;;5070741;28;20196;-40
2022/01/13 02:12:05;;;;;;;45.90;23.77;;;4.50;99.90;;;;;;5070339;28;20423;-40
2022/01/13 02:14:49;;;;;;;50.90;24.47;;;4.50;99.90;;;;;;5061313;28;20483;-40
2022/01/13 02:17:23;;;;;;;42.87;23.87;;;4.40;99.90;;;;;;5062666;28;20448;-40
2022/01/13 02:19:53;;;;;;;40.97;21.50;;;4.40;99.90;;;;;;5064120;28;20426;-40
2022/01/13 02:22:19;;;;;;;40.83;22.47;;;4.00;99.90;;;;;;5070445;28;20430;-39
2022/01/13 02:24:44;;;;;;;49.97;24.57;;;4.10;99.90;;;;;;5070366;28;20831;-39
2022/01/13 02:27:10;;;;;;;44.83;24.13;;;4.30;99.90;;;;;;5070260;28;20422;-40
2022/01/13 02:29:36;;;;;;;41.53;22.53;;;4.00;99.90;;;;;;5069592;28;20707;-40
2022/01/13 02:32:04;;;;;;;48.60;24.47;;;4.10;99.90;;;;;;5065783;28;20288;-40
2022/01/13 02:34:29;;;;;;;47.13;22.50;;;3.90;99.90;;;;;;5062618;28;20200;-40
2022/01/13 02:36:56;;;;;;;49.77;24.87;;;3.90;99.90;;;;;;5069946;28;20435;-40
2022/01/13 02:39:29;;;;;;;45.07;22.40;;;4.20;99.90;;;;;;5070304;28;20221;-40
2022/01/13 02:41:57;;;;;;;45.97;24.50;;;4.10;99.90;;;;;;5069739;28;20426;-40
2022/01/13 02:44:24;;;;;;;52.67;26.00;;;3.80;99.90;;;;;;5070152;28;20432;-39
2022/01/13 02:49:20;;;;;;;56.03;24.17;;;3.80;99.90;;;;;;5063015;28;20424;-40
2022/01/13 02:51:48;;;;;;;51.27;26.90;;;4.10;99.90;;;;;;5068812;28;20415;-40
2022/01/13 02:54:14;;;;;;;46.60;24.67;;;4.00;99.90;;;;;;5085184;28;21382;-40
2022/01/13 02:56:42;;;;;;;51.23;24.20;;;4.30;99.90;;;;;;5088934;28;20438;-40
2022/01/13 02:59:08;;;;;;;51.97;26.00;;;4.40;99.90;;;;;;5089797;28;20426;-39
2022/01/13 03:01:35;;;;;;;50.13;27.00;;;4.30;99.90;;;;;;5089234;28;20839;-40
2022/01/13 03:04:05;;;;;;;49.70;25.63;;;4.10;99.90;;;;;;5058446;28;20584;-40
2022/01/13 03:06:34;;;;;;;43.80;25.17;;;4.20;99.90;;;;;;5069435;28;20816;-39
2022/01/13 03:09:00;;;;;;;47.60;24.80;;;4.20;99.90;;;;;;5069831;28;20428;-40
2022/01/13 03:11:35;;;;;;;48.00;24.90;;;4.10;99.90;;;;;;5068710;28;20929;-40
2022/01/13 03:14:02;;;;;;;45.43;24.03;;;4.10;99.90;;;;;;5073111;28;20434;-40
2022/01/13 03:16:28;;;;;;;52.33;25.13;;;4.10;99.90;;;;;;5089448;28;20462;-39
2022/01/13 03:18:54;;;;;;;48.17;25.17;;;4.10;99.90;;;;;;5063717;28;20427;-40
2022/01/13 03:21:20;;;;;;;48.80;26.10;;;4.00;99.90;;;;;;5068423;28;20414;-40
2022/01/13 03:23:46;;;;;;;49.80;24.67;;;4.20;99.90;;;;;;5069137;28;20424;-39
2022/01/13 03:26:12;;;;;;;50.13;25.97;;;4.00;99.90;;;;;;5068888;28;20431;-40
2022/01/13 03:28:41;;;;;;;51.87;24.87;;;4.10;99.90;;;;;;5069027;28;20659;-40
2022/01/13 03:31:08;;;;;;;53.13;25.80;;;3.90;99.90;;;;;;5068686;28;20180;-42
2022/01/13 03:33:34;;;;;;;49.83;26.27;;;4.10;99.90;;;;;;5062833;28;20443;-40
2022/01/13 03:36:02;;;;;;;54.03;29.47;;;4.20;99.90;;;;;;5068920;28;20806;-41
2022/01/13 03:38:29;;;;;;;48.80;26.10;;;4.20;99.90;;;;;;5068863;28;20433;-39
2022/01/13 03:40:55;;;;;;;55.37;28.10;;;4.50;99.90;;;;;;5067903;28;20415;-39
2022/01/13 03:43:20;;;;;;;57.47;27.30;;;4.30;99.90;;;;;;5068667;28;20916;-41
2022/01/13 03:45:46;;;;;;;53.03;27.37;;;4.00;99.90;;;;;;5068975;28;20641;-40
2022/01/13 03:48:13;;;;;;;53.50;26.70;;;4.00;99.90;;;;;;5059234;28;20201;-39
2022/01/13 03:50:43;;;;;;;52.80;26.73;;;4.10;99.90;;;;;;5067319;28;20180;-40
2022/01/13 03:53:27;;;;;;;54.30;27.93;;;3.90;99.90;;;;;;5067137;28;21000;-39
2022/01/13 03:56:18;;;;;;;51.03;26.27;;;4.00;99.90;;;;;;5068115;28;20462;-41
2022/01/13 03:59:28;;;;;;;55.23;28.30;;;3.90;99.90;;;;;;5068701;28;20438;-40
2022/01/13 04:02:14;;;;;;;54.07;27.37;;;3.80;99.90;;;;;;5067225;28;20461;-42
2022/01/13 04:04:44;;;;;;;50.80;26.73;;;3.80;99.90;;;;;;5060115;28;20960;-40
2022/01/13 04:07:13;;;;;;;52.67;27.57;;;3.90;99.90;;;;;;5068237;28;20426;-40
2022/01/13 04:09:38;;;;;;;53.33;25.97;;;3.70;99.90;;;;;;5067706;28;20500;-40
2022/01/13 04:12:05;;;;;;;50.83;26.53;;;4.00;99.90;;;;;;5067722;28;20411;-39
2022/01/13 04:14:39;;;;;;;49.90;27.17;;;3.90;99.90;;;;;;5079677;28;20187;-39
2022/01/13 04:17:05;;;;;;;53.10;27.50;;;4.00;99.90;;;;;;5088221;28;20419;-41
2022/01/13 04:19:30;;;;;;;49.43;26.90;;;4.00;99.90;;;;;;5060658;28;20493;-40
2022/01/13 04:21:56;;;;;;;56.50;26.13;;;4.00;99.90;;;;;;5067479;28;20422;-39
2022/01/13 04:24:22;;;;;;;47.30;24.80;;;4.00;99.90;;;;;;5068217;28;20193;-40
2022/01/13 04:26:48;;;;;;;52.77;26.30;;;4.00;99.90;;;;;;5067416;28;20420;-40
2022/01/13 04:31:50;;;;;;;53.67;27.30;;;3.90;99.90;;;;;;5067244;28;20189;-39
2022/01/13 04:34:17;;;;;;;48.13;25.33;;;4.00;99.90;;;;;;5054020;28;20239;-40
2022/01/13 04:36:43;;;;;;;47.23;26.73;;;3.90;99.90;;;;;;5066649;28;20957;-40
2022/01/13 04:39:10;;;;;;;52.60;26.97;;;4.00;99.90;;;;;;5067485;28;20445;-40
2022/01/13 04:41:38;;;;;;;54.00;25.90;;;4.00;99.90;;;;;;5066851;28;20427;-39
2022/01/13 04:44:09;;;;;;;42.90;23.20;;;4.00;99.90;;;;;;5067753;28;20423;-39
2022/01/13 04:46:35;;;;;;;44.63;24.93;;;3.90;99.90;;;;;;5067426;28;20430;-39
2022/01/13 04:49:01;;;;;;;50.83;25.60;;;3.90;99.90;;;;;;5057313;28;20424;-39
2022/01/13 04:51:27;;;;;;;51.43;26.07;;;4.00;99.90;;;;;;5067050;28;20926;-40
2022/01/13 04:53:53;;;;;;;48.10;24.53;;;3.80;99.90;;;;;;5065296;28;20229;-40
2022/01/13 04:56:29;;;;;;;48.93;25.33;;;3.90;99.90;;;;;;5067520;28;20907;-39
2022/01/13 04:58:55;;;;;;;51.10;26.20;;;3.90;99.90;;;;;;5067381;28;20283;-39
2022/01/13 05:01:21;;;;;;;48.97;25.73;;;3.90;99.90;;;;;;5066800;28;20434;-39
2022/01/13 05:03:47;;;;;;;47.00;24.50;;;3.80;99.90;;;;;;5058098;28;20430;-39
2022/01/13 05:06:13;;;;;;;51.77;26.53;;;3.90;99.90;;;;;;5063017;28;20925;-40
2022/01/13 05:08:39;;;;;;;51.83;26.57;;;3.70;99.90;;;;;;5067134;28;20188;-41
2022/01/13 05:11:05;;;;;;;50.40;24.90;;;3.90;99.90;;;;;;5066143;28;20814;-43
2022/01/13 05:13:31;;;;;;;52.50;25.70;;;3.80;99.90;;;;;;5070572;28;20460;-40
2022/01/13 05:15:57;;;;;;;47.40;23.70;;;3.80;99.90;;;;;;5087525;28;20508;-40
2022/01/13 05:21:37;;;;;;;44.43;25.47;;;4.00;99.90;;;;;;5060878;28;20184;-41
2022/01/13 05:23:43;;;;;;;45.90;24.63;;;4.10;99.90;;;;;;5065264;28;20522;-39
2022/01/13 05:26:10;;;;;;;47.20;24.23;;;3.90;99.90;;;;;;5067159;28;20498;-41
2022/01/13 05:28:36;;;;;;;55.83;25.30;;;4.00;99.90;;;;;;5067625;28;20655;-40
2022/01/13 05:31:02;;;;;;;48.83;26.00;;;4.10;99.90;;;;;;5066211;28;20800;-40
2022/01/13 05:33:28;;;;;;;51.10;25.67;;;3.90;99.90;;;;;;5061018;28;20447;-40
2022/01/13 05:35:54;;;;;;;52.10;26.40;;;4.00;99.90;;;;;;5063055;28;20455;-39
2022/01/13 05:38:19;;;;;;;47.50;25.73;;;3.90;99.90;;;;;;5067200;28;20667;-40
2022/01/13 05:40:45;;;;;;;48.83;25.23;;;3.70;99.90;;;;;;5066442;28;20260;-40
2022/01/13 05:43:11;;;;;;;50.30;26.23;;;3.80;99.90;;;;;;5059790;28;20267;-39
2022/01/13 05:45:38;;;;;;;49.30;24.53;;;3.90;99.90;;;;;;5063443;28;20488;-39
2022/01/13 05:48:04;;;;;;;50.37;24.90;;;3.90;99.90;;;;;;5064693;28;20699;-40
2022/01/13 05:50:31;;;;;;;48.50;25.07;;;3.90;99.90;;;;;;5059513;28;20841;-39
2022/01/13 05:52:57;;;;;;;48.33;25.00;;;3.80;99.90;;;;;;5060681;28;20416;-41
2022/01/13 05:55:24;;;;;;;47.43;26.30;;;3.50;99.90;;;;;;5066353;28;20459;-40
2022/01/13 05:57:50;;;;;;;45.13;25.07;;;3.70;99.90;;;;;;5066945;28;20447;-40
2022/01/13 06:00:18;;;;;;;50.53;25.50;;;3.80;99.90;;;;;;5066453;28;20595;-40
2022/01/13 06:02:44;;;;;;;41.43;23.53;;;3.70;99.90;;;;;;5066517;28;20787;-40
2022/01/13 06:05:10;;;;;;;51.20;25.93;;;3.90;99.90;;;;;;5059368;28;20438;-39
2022/01/13 06:07:37;;;;;;;53.03;25.53;;;3.60;99.90;;;;;;5067116;28;20419;-40
2022/01/13 06:10:05;;;;;;;55.17;26.67;;;3.50;99.90;;;;;;5066356;28;20434;-41
2022/01/13 06:12:36;;;;;;;54.70;26.00;;;3.80;99.90;;;;;;5065865;28;20439;-41
2022/01/13 06:15:06;;;;;;;48.90;24.80;;;3.70;99.90;;;;;;5067448;28;20510;-42
2022/01/13 06:17:31;;;;;;;50.17;27.90;;;3.70;99.90;;;;;;5066661;28;20427;-39
2022/01/13 06:19:59;;;;;;;53.93;27.30;;;3.80;99.90;;;;;;5054520;28;20450;-40
2022/01/13 06:22:25;;;;;;;54.37;27.30;;;3.70;99.90;;;;;;5067120;28;20185;-40
2022/01/13 06:24:52;;;;;;;48.43;27.53;;;3.50;99.90;;;;;;5070393;28;20423;-39
2022/01/13 06:27:19;;;;;;;56.73;27.00;;;3.80;99.90;;;;;;5070131;28;20790;-41
2022/01/13 06:29:45;;;;;;;51.87;26.70;;;3.40;99.90;;;;;;5068838;28;20442;-41
2022/01/13 06:32:10;;;;;;;51.53;27.17;;;3.50;99.90;;;;;;5069994;28;20798;-40
2022/01/13 06:34:36;;;;;;;57.77;28.77;;;3.40;99.90;;;;;;5060381;28;20537;-41
2022/01/13 06:37:02;;;;;;;55.27;28.50;;;3.50;99.90;;;;;;5069878;28;20185;-42
2022/01/13 06:39:28;;;;;;;55.30;27.13;;;3.50;99.90;;;;;;5071463;28;20588;-41
2022/01/13 06:41:53;;;;;;;52.23;27.20;;;3.50;99.90;;;;;;5069495;28;20502;-42
2022/01/13 06:44:19;;;;;;;58.57;29.80;;;3.70;99.90;;;;;;5069842;28;20497;-40
2022/01/13 06:46:45;;;;;;;62.17;31.90;;;3.70;99.90;;;;;;5071252;28;20178;-40
2022/01/13 06:49:10;;;;;;;56.10;28.33;;;3.80;99.90;;;;;;5065034;28;20280;-40
2022/01/13 06:51:36;;;;;;;57.00;27.20;;;3.60;99.90;;;;;;5068178;28;20687;-39
2022/01/13 06:54:02;;;;;;;48.50;27.43;;;3.90;99.90;;;;;;5068141;28;20957;-41
2022/01/13 06:56:29;;;;;;;52.43;28.10;;;3.90;99.90;;;;;;5069010;28;20212;-40
2022/01/13 06:58:55;;;;;;;51.97;27.57;;;3.70;99.90;;;;;;5064811;28;20921;-40
2022/01/13 07:01:22;;;;;;;48.63;25.40;;;3.70;99.90;;;;;;5069078;28;20667;-39
2022/01/13 07:03:48;;;;;;;51.33;27.20;;;3.80;99.90;;;;;;5061684;28;20431;-40
2022/01/13 07:06:14;;;;;;;49.33;26.80;;;3.80;99.90;;;;;;5065371;28;20424;-40
2022/01/13 07:08:40;;;;;;;50.00;26.77;;;3.60;99.90;;;;;;5067891;28;20444;-42
2022/01/13 07:11:06;;;;;;;54.17;28.53;;;3.70;99.90;;;;;;5068927;28;20191;-41
2022/01/13 07:13:32;;;;;;;48.07;25.30;;;3.60;99.90;;;;;;5067447;28;20208;-40
2022/01/13 07:16:00;;;;;;;48.80;25.37;;;3.50;99.90;;;;;;5061791;28;20584;-40
2022/01/13 07:18:27;;;;;;;50.57;25.17;;;3.50;99.90;;;;;;5067121;28;20423;-39
2022/01/13 07:20:54;;;;;;;47.43;26.83;;;3.50;99.90;;;;;;5065099;28;20415;-41
2022/01/13 07:23:19;;;;;;;42.30;24.13;;;3.60;99.90;;;;;;5069120;28;20415;-39
2022/01/13 07:25:45;;;;;;;49.53;26.63;;;3.70;99.90;;;;;;5064297;28;20484;-40
2022/01/13 07:28:10;;;;;;;51.93;28.20;;;3.50;99.90;;;;;;5071045;28;20223;-43
2022/01/13 07:30:36;;;;;;;58.07;28.13;;;3.80;99.90;;;;;;5067921;28;20228;-41
2022/01/13 07:33:02;;;;;;;48.60;25.17;;;3.80;99.90;;;;;;5073028;28;20642;-39
2022/01/13 07:35:27;;;;;;;46.53;24.33;;;3.70;99.90;;;;;;5056835;28;20237;-40
2022/01/13 07:37:53;;;;;;;45.53;25.00;;;3.70;99.90;;;;;;5068818;28;20231;-41
2022/01/13 07:40:19;;;;;;;44.27;23.90;;;3.80;99.90;;;;;;5067572;28;20698;-43
2022/01/13 07:42:46;;;;;;;47.20;26.53;;;3.60;99.90;;;;;;5067983;28;20196;-40
2022/01/13 07:45:14;;;;;;;54.40;25.93;;;3.80;99.90;;;;;;5069926;28;20632;-40
2022/01/13 07:47:40;;;;;;;51.13;26.67;;;3.60;99.90;;;;;;5069525;28;20407;-40
2022/01/13 07:50:08;;;;;;;48.67;24.80;;;3.50;99.90;;;;;;5059744;28;20424;-39
2022/01/13 07:52:34;;;;;;;48.80;27.00;;;3.40;99.90;;;;;;5064168;28;20964;-41
2022/01/13 07:55:00;;;;;;;48.70;23.10;;;3.60;99.90;;;;;;5066702;28;20479;-40
2022/01/13 07:57:25;;;;;;;43.67;24.30;;;3.40;99.90;;;;;;5067789;28;20445;-40
2022/01/13 07:59:52;;;;;;;49.77;24.00;;;3.60;99.90;;;;;;5068482;28;20209;-40
2022/01/13 08:02:18;;;;;;;48.33;24.77;;;3.50;99.90;;;;;;5069774;28;20185;-41
2022/01/13 08:04:44;;;;;;;49.87;24.67;;;3.50;99.90;;;;;;5062519;28;20431;-39
2022/01/13 08:07:10;;;;;;;51.47;25.83;;;3.40;99.90;;;;;;5067823;28;20431;-40
2022/01/13 08:09:35;;;;;;;53.03;26.63;;;3.40;99.90;;;;;;5067980;28;20189;-40
2022/01/13 08:12:01;;;;;;;52.57;25.27;;;3.60;99.90;;;;;;5068186;28;20258;-39
2022/01/13 08:14:27;;;;;;;55.63;26.83;;;3.60;99.90;;;;;;5078471;28;20203;-39
2022/01/13 08:16:56;;;;;;;49.53;25.43;;;3.60;99.90;;;;;;5088579;28;20190;-40
2022/01/13 08:22:06;;;;;;;54.37;26.40;;;3.70;99.90;;;;;;5067678;28;20948;-40
2022/01/13 08:24:32;;;;;;;46.87;26.50;;;3.70;99.90;;;;;;5066509;28;20415;-39
2022/01/13 08:26:58;;;;;;;54.60;27.70;;;3.60;99.90;;;;;;5068341;28;20196;-40
2022/01/13 08:29:23;;;;;;;56.83;27.13;;;3.80;99.90;;;;;;5068029;28;20639;-40
2022/01/13 08:31:49;;;;;;;54.70;27.13;;;3.60;99.90;;;;;;5067419;28;20651;-42
2022/01/13 08:34:16;;;;;;;47.87;26.57;;;3.30;99.90;;;;;;5063628;28;20196;-42
2022/01/13 08:36:42;;;;;;;55.57;27.73;;;3.70;99.90;;;;;;5059691;28;20832;-43
2022/01/13 08:39:08;;;;;;;48.60;25.60;;;3.70;99.90;;;;;;5067540;28;20558;-43
2022/01/13 08:41:34;;;;;;;53.50;26.00;;;3.70;99.90;;;;;;5086269;28;20421;-39
2022/01/13 08:44:00;;;;;;;51.47;27.67;;;3.70;99.90;;;;;;5086931;28;20419;-40
2022/01/13 08:46:26;;;;;;;47.33;25.40;;;3.50;99.90;;;;;;5087873;28;20268;-40
2022/01/13 08:48:53;;;;;;;47.53;25.93;;;3.60;99.90;;;;;;5087863;28;20183;-41
2022/01/13 08:51:19;;;;;;;51.97;25.53;;;3.50;99.90;;;;;;5055636;28;20435;-42
2022/01/13 08:53:45;;;;;;;49.60;25.73;;;3.80;99.90;;;;;;5066309;28;20419;-39
2022/01/13 08:56:12;;;;;;;51.23;24.93;;;3.80;99.90;;;;;;5067509;28;20701;-41
2022/01/13 08:58:37;;;;;;;48.80;25.70;;;3.60;99.90;;;;;;5067766;28;20447;-40
2022/01/13 09:01:03;;;;;;;49.03;25.83;;;4.00;99.90;;;;;;5066878;28;20540;-40
2022/01/13 09:03:29;;;;;;;42.77;24.73;;;3.90;99.90;;;;;;5067220;28;20284;-41
2022/01/13 09:05:54;;;;;;;54.30;25.90;;;3.90;99.90;;;;;;5057700;28;20192;-45
2022/01/13 09:08:20;;;;;;;48.03;25.23;;;3.90;99.90;;;;;;5067584;28;20170;-41
2022/01/13 09:10:46;;;;;;;51.03;25.20;;;3.90;99.90;;;;;;5066983;28;20180;-40
2022/01/13 09:13:15;;;;;;;48.07;25.80;;;3.90;99.90;;;;;;5067632;28;20917;-40
2022/01/13 09:15:51;;;;;;;50.90;27.37;;;3.90;99.90;;;;;;5087523;28;20705;-39
2022/01/13 09:18:29;;;;;;;49.40;24.90;;;4.10;99.90;;;;;;5087201;28;20418;-40
2022/01/13 09:20:55;;;;;;;54.37;27.73;;;3.80;99.90;;;;;;5063134;28;20443;-40
2022/01/13 09:23:20;;;;;;;53.67;25.90;;;3.90;99.90;;;;;;5066934;28;20488;-40
2022/01/13 09:25:46;;;;;;;55.10;29.07;;;3.90;99.90;;;;;;5065640;28;20726;-40
2022/01/13 09:28:13;;;;;;;51.77;27.50;;;4.30;99.90;;;;;;5066917;28;20189;-40
2022/01/13 09:30:39;;;;;;;49.37;27.47;;;4.20;99.90;;;;;;5066666;28;20350;-39
2022/01/13 09:33:06;;;;;;;51.30;28.20;;;4.20;99.90;;;;;;5067016;28;20461;-41
2022/01/13 09:35:33;;;;;;;50.93;26.30;;;4.30;99.90;;;;;;5056016;28;20471;-40
2022/01/13 09:37:58;;;;;;;51.23;26.87;;;4.50;99.90;;;;;;5064839;28;20831;-40
2022/01/13 09:40:25;;;;;;;55.73;29.00;;;4.60;99.90;;;;;;5066739;28;20419;-39
2022/01/13 09:42:52;;;;;;;53.03;27.83;;;4.90;99.90;;;;;;5066722;28;20428;-41
2022/01/13 09:45:18;;;;;;;51.10;26.67;;;5.00;99.90;;;;;;5067090;28;20512;-42
2022/01/13 09:47:45;;;;;;;53.37;28.50;;;5.10;99.90;;;;;;5066578;28;20516;-41
2022/01/13 09:50:16;;;;;;;51.00;28.30;;;5.40;99.90;;;;;;5059828;28;20482;-40
2022/01/13 09:52:42;;;;;;;47.47;26.20;;;6.00;99.90;;;;;;5060088;28;20818;-39
2022/01/13 09:55:10;;;;;;;48.70;28.50;;;6.00;99.90;;;;;;5066936;28;20471;-41
2022/01/13 09:57:39;;;;;;;50.17;26.73;;;6.20;99.90;;;;;;5067756;28;20554;-40
2022/01/13 10:00:05;;;;;;;47.20;25.80;;;6.40;99.90;;;;;;5069895;28;20913;-40
2022/01/13 10:02:31;;;;;;;45.10;26.57;;;6.30;99.90;;;;;;5070902;28;20438;-40
2022/01/13 10:04:57;;;;;;;44.73;25.10;;;6.40;99.90;;;;;;5066251;28;20482;-46
2022/01/13 10:07:44;;;;;;;47.63;27.10;;;6.40;99.90;;;;;;5063557;28;20185;-40
2022/01/13 10:10:15;;;;;;;53.37;27.53;;;6.30;99.90;;;;;;5069864;28;20488;-40
2022/01/13 10:12:43;;;;;;;50.67;28.17;;;6.30;99.90;;;;;;5070367;28;21024;-41
2022/01/13 10:18:04;;;;;;;48.33;27.17;;;7.40;99.90;;;;;;5090880;28;20422;-40
2022/01/13 10:20:30;;;;;;;45.63;26.93;;;7.30;99.90;;;;;;5077081;28;20829;-40
2022/01/13 10:23:06;;;;;;;47.73;27.30;;;7.90;99.90;;;;;;5066165;28;21320;-39
2022/01/13 10:25:35;;;;;;;45.70;26.60;;;8.10;99.90;;;;;;5068843;28;20421;-40
2022/01/13 10:28:22;;;;;;;47.23;26.70;;;8.60;99.90;;;;;;5070299;28;21028;-40
2022/01/13 10:30:50;;;;;;;39.50;25.93;;;8.70;99.90;;;;;;5069536;28;20434;-40
2022/01/13 10:33:27;;;;;;;46.13;26.37;;;8.40;99.90;;;;;;5070119;28;20795;-40
2022/01/13 10:36:04;;;;;;;47.30;26.93;;;8.10;99.90;;;;;;5064607;28;20540;-42
2022/01/13 10:38:53;;;;;;;45.07;25.43;;;7.80;99.90;;;;;;5070285;28;20781;-45
2022/01/13 10:41:36;;;;;;;43.40;24.77;;;7.30;99.90;;;;;;5069054;28;20917;-40
2022/01/13 10:44:16;;;;;;;43.63;24.53;;;6.80;99.90;;;;;;5070313;28;20549;-40
2022/01/13 10:47:02;;;;;;;43.20;24.87;;;7.00;99.90;;;;;;5070074;28;20430;-40
2022/01/13 10:49:33;;;;;;;45.27;25.70;;;6.80;99.90;;;;;;5070162;28;20431;-40
2022/01/13 10:52:26;;;;;;;45.03;24.30;;;6.80;99.90;;;;;;5061731;28;20838;-42
2022/01/13 10:55:07;;;;;;;40.30;25.40;;;7.10;99.90;;;;;;5063014;28;20471;-40
2022/01/13 10:57:33;;;;;;;43.03;25.60;;;6.70;99.90;;;;;;5069613;28;20512;-40
2022/01/13 10:59:59;;;;;;;41.57;24.30;;;6.90;99.90;;;;;;5069373;28;20423;-43
2022/01/13 11:02:26;;;;;;;41.63;23.53;;;6.80;99.90;;;;;;5069331;28;20415;-40
2022/01/13 11:04:53;;;;;;;41.33;22.87;;;6.90;99.90;;;;;;5069481;28;21599;-41
2022/01/13 11:07:24;;;;;;;41.47;22.67;;;7.20;99.90;;;;;;5058844;28;20420;-40
2022/01/13 11:09:59;;;;;;;43.13;24.67;;;7.30;99.90;;;;;;5067613;28;20449;-40
2022/01/13 11:12:31;;;;;;;41.67;23.80;;;7.40;99.90;;;;;;5069307;28;20961;-40
2022/01/13 11:15:04;;;;;;;38.60;23.70;;;7.50;99.90;;;;;;5073246;28;21034;-39
2022/01/13 11:17:30;;;;;;;36.13;21.40;;;7.40;99.90;;;;;;5089587;28;20427;-40
2022/01/13 11:19:56;;;;;;;38.33;21.57;;;7.50;99.90;;;;;;5088929;28;20427;-40
2022/01/13 11:22:23;;;;;;;39.43;20.93;;;7.30;99.90;;;;;;5060502;28;20917;-42
2022/01/13 11:24:49;;;;;;;39.80;22.13;;;7.60;99.90;;;;;;5067447;28;20416;-41
2022/01/13 11:27:18;;;;;;;39.43;22.03;;;7.50;99.90;;;;;;5069384;28;20451;-40
2022/01/13 11:29:47;;;;;;;38.47;21.20;;;7.50;99.90;;;;;;5068702;28;20506;-39
2022/01/13 11:32:16;;;;;;;32.33;19.67;;;7.30;99.90;;;;;;5069302;28;20427;-41
2022/01/13 11:34:43;;;;;;;36.20;20.77;;;7.70;99.90;;;;;;5069198;28;20500;-40
2022/01/13 11:37:08;;;;;;;37.07;21.43;;;7.50;99.90;;;;;;5062762;28;20949;-40
2022/01/13 11:39:40;;;;;;;38.80;22.20;;;7.60;99.90;;;;;;5068902;28;20457;-40
2022/01/13 11:42:09;;;;;;;38.53;21.53;;;7.70;99.90;;;;;;5068700;28;20200;-39
2022/01/13 11:44:36;;;;;;;42.70;23.20;;;7.60;99.90;;;;;;5068983;28;20476;-40
2022/01/13 11:47:08;;;;;;;35.70;22.10;;;7.60;99.90;;;;;;5068874;28;20839;-43
2022/01/13 11:49:53;;;;;;;38.70;21.90;;;7.70;99.90;;;;;;5068488;28;20430;-41
2022/01/13 11:52:39;;;;;;;39.60;22.97;;;7.80;99.90;;;;;;5060708;28;20439;-40
2022/01/13 11:55:26;;;;;;;37.63;21.63;;;8.00;99.90;;;;;;5068771;28;20462;-41
2022/01/13 11:58:16;;;;;;;34.73;19.93;;;8.30;99.90;;;;;;5056788;28;20859;-41
2022/01/13 12:00:44;;;;;;;37.10;21.37;;;8.90;99.90;;;;;;5068224;28;21068;-42
2022/01/13 12:03:34;;;;;;;41.60;20.97;;;10.80;99.90;;;;;;5068388;28;20842;-41
2022/01/13 12:06:03;;;;;;;33.23;18.97;;;12.80;99.90;;;;;;5061632;28;20428;-41
2022/01/13 12:08:35;;;;;;;30.90;20.00;;;14.50;97.50;;;;;;5063864;28;20427;-40
2022/01/13 12:11:01;;;;;;;38.20;20.10;;;15.30;94.60;;;;;;5067544;28;20915;-41
2022/01/13 12:13:35;;;;;;;30.10;19.30;;;16.30;92.40;;;;;;5071192;28;21081;-41
2022/01/13 12:16:02;;;;;;;31.60;19.33;;;17.40;90.10;;;;;;5080200;28;20499;-40
2022/01/13 12:18:44;;;;;;;29.57;18.83;;;18.50;82.90;;;;;;5088665;28;20499;-42
2022/01/13 12:21:28;;;;;;;33.30;19.10;;;19.00;78.20;;;;;;5072854;28;20428;-42
2022/01/13 12:23:56;;;;;;;30.20;17.90;;;19.50;75.00;;;;;;5061253;28;20415;-44
2022/01/13 12:26:33;;;;;;;32.40;19.20;;;19.50;73.60;;;;;;5066505;28;20511;-41
2022/01/13 12:29:09;;;;;;;25.30;16.93;;;19.70;71.40;;;;;;5066933;28;20506;-41
2022/01/13 12:31:47;;;;;;;31.57;20.30;;;19.30;70.60;;;;;;5067300;28;20798;-42
2022/01/13 12:34:20;;;;;;;35.20;18.57;;;18.00;71.20;;;;;;5068440;28;20416;-44
2022/01/13 12:36:45;;;;;;;32.77;16.83;;;15.20;79.80;;;;;;5060374;28;20509;-42
2022/01/13 12:39:14;;;;;;;28.47;16.90;;;13.40;90.00;;;;;;5063916;28;20934;-42
2022/01/13 12:42:26;;;;;;;30.53;16.23;;;12.20;94.10;;;;;;5067473;28;20605;-42
2022/01/13 12:47:38;;;;;;;30.03;18.40;;;10.30;99.90;;;;;;5067448;28;20426;-41
2022/01/13 12:50:22;;;;;;;25.80;16.60;;;9.70;99.90;;;;;;5065900;28;20416;-45
2022/01/13 12:52:48;;;;;;;27.30;16.97;;;9.60;99.90;;;;;;5057094;28;20438;-41
2022/01/13 12:55:15;;;;;;;29.13;16.87;;;9.00;99.90;;;;;;5067359;28;20467;-40
2022/01/13 12:57:46;;;;;;;27.37;17.23;;;8.80;99.90;;;;;;5067586;28;20997;-42
2022/01/13 13:00:14;;;;;;;28.33;17.20;;;8.60;99.90;;;;;;5066839;28;20844;-40
2022/01/13 13:02:52;;;;;;;33.50;18.40;;;8.30;99.90;;;;;;5054706;28;20419;-44
2022/01/13 13:05:36;;;;;;;34.07;18.13;;;8.20;99.90;;;;;;5067784;28;20415;-41
2022/01/13 13:08:02;;;;;;;30.47;17.40;;;8.30;99.90;;;;;;5056383;28;20527;-40
2022/01/13 13:10:29;;;;;;;28.23;17.60;;;8.40;99.90;;;;;;5066991;28;20573;-42